createdAt,value
2023-05-11T00:01:53.050Z,100325.83
2023-05-11T00:04:19.944Z,100323.35
2023-05-11T00:06:46.877Z,100326.66
2023-05-11T00:09:13.806Z,100324.59
2023-05-11T00:11:41.064Z,100324.07
2023-05-11T00:14:08.208Z,100325.46
2023-05-11T00:16:35.180Z,100327.02
2023-05-11T00:19:02.135Z,100326.50
2023-05-11T00:21:29.089Z,100327.19
2023-05-11T00:23:56.245Z,100328.77
2023-05-11T00:26:23.399Z,100329.64
2023-05-11T00:28:51.461Z,100325.98
2023-05-11T00:31:18.348Z,100324.24
2023-05-11T00:33:45.601Z,100322.52
2023-05-11T00:36:12.519Z,100322.54
2023-05-11T00:38:42.850Z,100321.88
2023-05-11T00:41:09.809Z,100318.59
2023-05-11T00:43:36.642Z,100322.14
2023-05-11T00:46:04.007Z,100321.83
2023-05-11T00:48:30.949Z,100320.64
2023-05-11T00:50:59.345Z,100319.45
2023-05-11T00:53:26.394Z,100322.06
2023-05-11T00:55:54.168Z,100319.63
2023-05-11T00:58:21.230Z,100318.58
2023-05-11T01:00:48.216Z,100321.54
2023-05-11T01:03:16.320Z,100320.48
2023-05-11T01:05:52.289Z,100323.92
2023-05-11T01:08:24.881Z,100321.09
2023-05-11T01:11:19.520Z,100319.80
2023-05-11T01:13:50.896Z,100318.70
2023-05-11T01:16:22.298Z,100320.58
2023-05-11T01:19:02.362Z,100324.02
2023-05-11T01:21:34.193Z,100325.17
2023-05-11T01:24:30.929Z,100328.61
2023-05-11T01:27:20.236Z,100324.73
2023-05-11T01:29:58.789Z,100324.87
2023-05-11T01:32:26.926Z,100327.48
2023-05-11T01:35:08.970Z,100330.08
2023-05-11T01:37:35.921Z,100325.89
2023-05-11T01:40:10.679Z,100330.27
2023-05-11T01:42:42.011Z,100331.14
2023-05-11T01:45:09.564Z,100332.02
2023-05-11T01:47:36.505Z,100329.95
2023-05-11T01:50:04.316Z,100333.62
2023-05-11T01:52:32.169Z,100333.63
2023-05-11T01:54:59.097Z,100336.95
2023-05-11T01:57:26.156Z,100335.59
2023-05-11T01:59:53.100Z,100332.16
2023-05-11T02:02:20.418Z,100335.70
2023-05-11T02:04:47.638Z,100335.59
2023-05-11T02:07:14.566Z,100336.17
2023-05-11T02:09:41.524Z,100336.41
2023-05-11T02:12:09.007Z,100335.42
2023-05-11T02:14:36.781Z,100338.45
2023-05-11T02:17:04.319Z,100343.75
2023-05-11T02:19:33.061Z,100346.41
2023-05-11T02:22:00.295Z,100343.83
2023-05-11T02:24:27.538Z,100349.13
2023-05-11T02:26:54.389Z,100348.64
2023-05-11T02:29:21.633Z,100352.52
2023-05-11T02:31:49.652Z,100348.89
2023-05-11T02:34:44.498Z,100349.61
2023-05-11T02:37:15.751Z,100348.26
2023-05-11T02:39:44.948Z,100351.10
2023-05-11T02:42:18.106Z,100354.80
2023-05-11T02:44:51.451Z,100356.08
2023-05-11T02:47:18.395Z,100354.52
2023-05-11T02:49:45.571Z,100354.52
2023-05-11T02:52:12.808Z,100355.90
2023-05-11T02:54:43.072Z,100353.60
2023-05-11T02:57:10.080Z,100356.35
2023-05-11T02:59:37.343Z,100356.27
2023-05-11T03:02:04.531Z,100359.00
2023-05-11T03:04:31.755Z,100361.72
2023-05-11T03:06:58.708Z,100367.21
2023-05-11T03:09:25.763Z,100363.95
2023-05-11T03:11:52.814Z,100363.11
2023-05-11T03:14:20.170Z,100361.92
2023-05-11T03:16:48.161Z,100364.73
2023-05-11T03:19:15.406Z,100370.69
2023-05-11T03:21:42.666Z,100369.15
2023-05-11T03:24:09.833Z,100373.59
2023-05-11T03:26:36.874Z,100376.47
2023-05-11T03:29:03.943Z,100374.15
2023-05-11T03:31:30.865Z,100376.92
2023-05-11T03:33:58.760Z,100375.73
2023-05-11T03:36:26.724Z,100374.05
2023-05-11T03:38:56.691Z,100377.09
2023-05-11T03:41:26.063Z,100381.88
2023-05-11T03:43:54.647Z,100383.86
2023-05-11T03:46:22.850Z,100385.98
2023-05-11T03:48:50.386Z,100387.04
2023-05-11T03:51:20.137Z,100390.00
2023-05-11T03:53:46.962Z,100392.25
2023-05-11T03:56:14.010Z,100391.20
2023-05-11T03:58:40.906Z,100396.13
2023-05-11T04:01:10.972Z,100397.06
2023-05-11T04:03:51.247Z,100401.30
2023-05-11T04:06:18.694Z,100404.13
2023-05-11T04:08:47.410Z,100402.54
2023-05-11T04:11:14.340Z,100405.44
2023-05-11T04:13:41.517Z,100409.52
2023-05-11T04:16:08.957Z,100406.42
2023-05-11T04:18:35.955Z,100407.46
2023-05-11T04:21:02.956Z,100409.36
2023-05-11T04:23:29.905Z,100410.05
2023-05-11T04:25:58.686Z,100409.50
2023-05-11T04:28:28.136Z,100418.91
2023-05-11T04:30:55.989Z,100424.02
2023-05-11T04:33:23.752Z,100427.13
2023-05-11T04:35:52.006Z,100429.02
2023-05-11T04:38:19.799Z,100431.77
2023-05-11T04:40:48.080Z,100429.09
2023-05-11T04:43:15.856Z,100428.19
2023-05-11T04:45:48.167Z,100429.45
2023-05-11T04:48:16.872Z,100424.96
2023-05-11T04:50:45.110Z,100424.48
2023-05-11T04:53:12.363Z,100422.77
2023-05-11T04:55:39.784Z,100421.94
2023-05-11T04:58:06.641Z,100425.27
2023-05-11T05:00:33.764Z,100428.22
2023-05-11T05:03:00.761Z,100425.67
2023-05-11T05:05:27.721Z,100427.63
2023-05-11T05:07:54.676Z,100429.95
2023-05-11T05:10:22.136Z,100431.25
2023-05-11T05:12:49.305Z,100432.42
2023-05-11T05:15:16.246Z,100435.77
2023-05-11T05:17:43.544Z,100437.03
2023-05-11T05:20:11.090Z,100440.55
2023-05-11T05:22:38.031Z,100440.54
2023-05-11T05:25:05.576Z,100439.30
2023-05-11T05:27:34.910Z,100432.44
2023-05-11T05:30:05.221Z,100430.30
2023-05-11T05:32:32.094Z,100430.88
2023-05-11T05:34:59.462Z,100434.94
2023-05-11T05:37:26.996Z,100435.79
2023-05-11T05:39:54.168Z,100436.92
2023-05-11T05:42:22.552Z,100434.86
2023-05-11T05:44:50.308Z,100437.05
2023-05-11T05:47:17.359Z,100435.48
2023-05-11T05:49:44.764Z,100436.42
2023-05-11T05:52:11.872Z,100435.86
2023-05-11T05:54:40.989Z,100437.98
2023-05-11T05:57:07.867Z,100439.09
2023-05-11T05:59:35.283Z,100440.86
2023-05-11T06:02:02.194Z,100438.73
2023-05-11T06:04:29.784Z,100439.02
2023-05-11T06:06:58.095Z,100433.88
2023-05-11T06:09:25.033Z,100429.85
2023-05-11T06:11:54.336Z,100429.92
2023-05-11T06:14:22.790Z,100433.46
2023-05-11T06:16:50.086Z,100431.17
2023-05-11T06:19:16.992Z,100428.39
2023-05-11T06:21:46.283Z,100433.52
2023-05-11T06:24:13.496Z,100431.06
2023-05-11T06:26:41.340Z,100428.02
2023-05-11T06:29:08.280Z,100428.92
2023-05-11T06:31:35.844Z,100428.36
2023-05-11T06:34:04.169Z,100423.33
2023-05-11T06:36:32.419Z,100428.98
2023-05-11T06:38:59.709Z,100429.00
2023-05-11T06:41:27.093Z,100427.70
2023-05-11T06:43:53.926Z,100431.27
2023-05-11T06:46:26.630Z,100434.61
2023-05-11T06:48:53.615Z,100438.46
2023-05-11T06:51:22.138Z,100441.02
2023-05-11T06:53:48.974Z,100437.32
2023-05-11T06:56:16.139Z,100437.89
2023-05-11T06:58:45.945Z,100433.64
2023-05-11T07:01:12.955Z,100435.08
2023-05-11T07:03:39.931Z,100433.39
2023-05-11T07:06:07.357Z,100434.09
2023-05-11T07:08:34.481Z,100427.48
2023-05-11T07:11:01.740Z,100426.96
2023-05-11T07:13:28.791Z,100419.06
2023-05-11T07:15:57.510Z,100420.37
2023-05-11T07:18:24.992Z,100416.70
2023-05-11T07:20:52.006Z,100418.69
2023-05-11T07:23:19.251Z,100418.92
2023-05-11T07:25:46.210Z,100414.61
2023-05-11T07:28:13.167Z,100412.41
2023-05-11T07:30:40.107Z,100412.48
2023-05-11T07:33:07.170Z,100411.04
2023-05-11T07:35:34.111Z,100406.06
2023-05-11T07:38:01.063Z,100404.90
2023-05-11T07:40:28.028Z,100405.02
2023-05-11T07:42:55.070Z,100398.60
2023-05-11T07:45:22.125Z,100402.83
2023-05-11T07:47:49.020Z,100404.64
2023-05-11T07:50:17.134Z,100404.52
2023-05-11T07:52:44.302Z,100405.33
2023-05-11T07:55:11.158Z,100401.80
2023-05-11T07:57:38.107Z,100404.88
2023-05-11T08:00:08.198Z,100396.79
2023-05-11T08:02:38.949Z,100393.83
2023-05-11T08:05:06.479Z,100392.91
2023-05-11T08:07:33.392Z,100395.73
2023-05-11T08:10:00.285Z,100390.77
2023-05-11T08:12:27.587Z,100394.48
2023-05-11T08:14:54.441Z,100395.28
2023-05-11T08:17:21.834Z,100393.52
2023-05-11T08:19:48.852Z,100396.33
2023-05-11T08:22:15.816Z,100399.66
2023-05-11T08:24:42.760Z,100396.13
2023-05-11T08:27:09.708Z,100390.13
2023-05-11T08:29:36.667Z,100396.22
2023-05-11T08:32:03.736Z,100393.65
2023-05-11T08:34:30.929Z,100393.62
2023-05-11T08:37:00.272Z,100389.99
2023-05-11T08:39:45.495Z,100389.82
2023-05-11T08:42:17.654Z,100389.39
2023-05-11T08:44:44.680Z,100391.70
2023-05-11T08:47:22.648Z,100391.58
2023-05-11T08:49:52.477Z,100390.05
2023-05-11T08:52:19.646Z,100395.48
2023-05-11T08:54:47.310Z,100399.13
2023-05-11T08:57:14.680Z,100406.20
2023-05-11T08:59:42.340Z,100408.39
2023-05-11T09:02:11.158Z,100408.64
2023-05-11T09:04:38.084Z,100406.47
2023-05-11T09:07:05.040Z,100404.40
2023-05-11T09:09:32.127Z,100402.52
2023-05-11T09:11:59.067Z,100403.29
2023-05-11T09:14:27.528Z,100401.15
2023-05-11T09:16:54.746Z,100402.94
2023-05-11T09:19:22.147Z,100397.65
2023-05-11T09:21:49.131Z,100398.02
2023-05-11T09:24:16.047Z,100392.98
2023-05-11T09:26:43.022Z,100386.12
2023-05-11T09:29:09.912Z,100383.72
2023-05-11T09:31:40.176Z,100380.67
2023-05-11T09:34:14.264Z,100380.30
2023-05-11T09:36:42.482Z,100379.77
2023-05-11T09:39:15.414Z,100376.39
2023-05-11T09:41:43.290Z,100378.00
2023-05-11T09:44:12.164Z,100374.45
2023-05-11T09:46:40.143Z,100368.45
2023-05-11T09:49:07.966Z,100366.06
2023-05-11T09:51:37.034Z,100364.27
2023-05-11T09:54:18.111Z,100362.67
2023-05-11T09:56:47.273Z,100362.70
2023-05-11T09:59:18.561Z,100359.14
2023-05-11T10:01:45.508Z,100355.63
2023-05-11T10:04:23.108Z,100352.70
2023-05-11T10:06:53.732Z,100347.08
2023-05-11T10:09:24.511Z,100350.55
2023-05-11T10:11:51.500Z,100347.30
2023-05-11T10:14:19.067Z,100344.27
2023-05-11T10:16:46.630Z,100347.59
2023-05-11T10:19:14.120Z,100345.38
2023-05-11T10:21:41.134Z,100347.50
2023-05-11T10:24:28.594Z,100343.89
2023-05-11T10:26:56.294Z,100338.23
2023-05-11T10:29:23.173Z,100338.52
2023-05-11T10:31:51.760Z,100336.52
2023-05-11T10:34:18.972Z,100329.48
2023-05-11T10:36:46.427Z,100331.66
2023-05-11T10:39:13.303Z,100336.94
2023-05-11T10:41:56.458Z,100336.56
2023-05-11T10:44:48.048Z,100328.81
2023-05-11T10:47:37.764Z,100328.67
2023-05-11T10:50:43.281Z,100325.91
2023-05-11T10:53:16.659Z,100321.95
2023-05-11T10:56:06.509Z,100322.16
2023-05-11T10:58:48.454Z,100318.23
2023-05-11T11:01:24.601Z,100310.33
2023-05-11T11:03:58.534Z,100309.99
2023-05-11T11:06:26.023Z,100303.67
2023-05-11T11:09:00.462Z,100305.48
2023-05-11T11:11:34.998Z,100306.70
2023-05-11T11:14:03.836Z,100306.20
2023-05-11T11:16:31.031Z,100309.82
2023-05-11T11:19:32.476Z,100307.52
2023-05-11T11:22:00.505Z,100305.79
2023-05-11T11:24:39.688Z,100304.46
2023-05-11T11:27:07.366Z,100299.61
2023-05-11T11:29:35.268Z,100298.02
2023-05-11T11:32:25.311Z,100295.12
2023-05-11T11:34:52.685Z,100299.30
2023-05-11T11:37:22.383Z,100298.05
2023-05-11T11:39:50.541Z,100294.17
2023-05-11T11:42:19.722Z,100294.70
2023-05-11T11:44:46.705Z,100294.45
2023-05-11T11:47:23.354Z,100289.81
2023-05-11T11:49:54.021Z,100288.91
2023-05-11T11:52:26.963Z,100288.19
2023-05-11T11:54:57.847Z,100293.36
2023-05-11T11:57:38.216Z,100283.88
2023-05-11T12:00:11.670Z,100289.09
2023-05-11T12:02:42.950Z,100288.69
2023-05-11T12:05:12.806Z,100287.20
2023-05-11T12:07:44.408Z,100288.58
2023-05-11T12:10:13.327Z,100288.09
2023-05-11T12:12:40.413Z,100283.51
2023-05-11T12:15:08.147Z,100280.11
2023-05-11T12:17:38.486Z,100275.95
2023-05-11T12:20:15.453Z,100275.99
2023-05-11T12:22:42.922Z,100273.20
2023-05-11T12:25:11.545Z,100270.77
2023-05-11T12:27:52.073Z,100270.05
2023-05-11T12:30:23.416Z,100269.29
2023-05-11T12:32:56.458Z,100263.17
2023-05-11T12:35:33.962Z,100265.48
2023-05-11T12:38:02.466Z,100267.52
2023-05-11T12:40:29.545Z,100266.27
2023-05-11T12:42:57.892Z,100262.95
2023-05-11T12:45:25.655Z,100266.27
2023-05-11T12:47:53.837Z,100270.55
2023-05-11T12:50:21.136Z,100263.91
2023-05-11T12:52:49.337Z,100264.71
2023-05-11T12:55:28.452Z,100263.02
2023-05-11T12:58:06.640Z,100263.06
2023-05-11T13:00:33.712Z,100258.48
2023-05-11T13:03:00.629Z,100260.29
2023-05-11T13:05:29.511Z,100258.17
2023-05-11T13:08:04.180Z,100258.52
2023-05-11T13:10:31.028Z,100260.52
2023-05-11T13:12:57.961Z,100260.23
2023-05-11T13:15:25.457Z,100260.71
2023-05-11T13:17:57.272Z,100260.66
2023-05-11T13:20:27.303Z,100256.41
2023-05-11T13:23:03.595Z,100255.68
2023-05-11T13:25:30.541Z,100250.31
2023-05-11T13:27:57.406Z,100248.14
2023-05-11T13:30:28.519Z,100246.55
2023-05-11T13:32:55.479Z,100244.48
2023-05-11T13:35:22.460Z,100241.27
2023-05-11T13:37:49.292Z,100242.00
2023-05-11T13:40:16.127Z,100243.18
2023-05-11T13:42:43.599Z,100239.77
2023-05-11T13:45:12.194Z,100240.86
2023-05-11T13:47:39.121Z,100239.56
2023-05-11T13:50:07.288Z,100234.88
2023-05-11T13:52:34.284Z,100235.74
2023-05-11T13:55:01.151Z,100236.58
2023-05-11T13:57:28.005Z,100235.45
2023-05-11T13:59:54.987Z,100233.88
2023-05-11T14:02:22.417Z,100233.35
2023-05-11T14:04:49.315Z,100235.50
2023-05-11T14:07:16.232Z,100233.52
2023-05-11T14:09:44.053Z,100229.76
2023-05-11T14:12:11.015Z,100227.54
2023-05-11T14:14:38.019Z,100227.18
2023-05-11T14:17:06.124Z,100223.25
2023-05-11T14:19:33.119Z,100224.61
2023-05-11T14:22:00.658Z,100222.40
2023-05-11T14:24:27.615Z,100222.04
2023-05-11T14:26:54.832Z,100223.73
2023-05-11T14:29:21.721Z,100219.20
2023-05-11T14:31:48.858Z,100217.86
2023-05-11T14:34:15.796Z,100216.16
2023-05-11T14:36:42.673Z,100216.38
2023-05-11T14:39:09.629Z,100216.55
2023-05-11T14:41:36.986Z,100216.83
2023-05-11T14:44:03.953Z,100218.67
2023-05-11T14:46:31.119Z,100212.45
2023-05-11T14:48:58.054Z,100212.87
2023-05-11T14:51:24.931Z,100211.61
2023-05-11T14:53:52.381Z,100213.44
2023-05-11T14:56:19.257Z,100208.80
2023-05-11T14:58:47.078Z,100210.70
2023-05-11T15:01:13.961Z,100208.58
2023-05-11T15:03:41.739Z,100208.95
2023-05-11T15:06:08.750Z,100207.96
2023-05-11T15:08:35.644Z,100208.59
2023-05-11T15:11:02.497Z,100205.14
2023-05-11T15:13:29.314Z,100206.74
2023-05-11T15:15:57.119Z,100211.99
2023-05-11T15:18:24.155Z,100206.67
2023-05-11T15:20:51.072Z,100207.14
2023-05-11T15:23:18.121Z,100206.00
2023-05-11T15:25:45.417Z,100205.96
2023-05-11T15:28:12.646Z,100203.42
2023-05-11T15:30:41.747Z,100201.38
2023-05-11T15:33:10.563Z,100204.08
2023-05-11T15:35:38.025Z,100205.38
2023-05-11T15:38:05.404Z,100206.64
2023-05-11T15:40:32.737Z,100207.27
2023-05-11T15:43:00.490Z,100207.30
2023-05-11T15:45:27.705Z,100204.89
2023-05-11T15:47:54.692Z,100206.36
2023-05-11T15:50:22.377Z,100203.36
2023-05-11T15:52:49.636Z,100202.66
2023-05-11T15:55:16.633Z,100202.95
2023-05-11T15:57:43.473Z,100206.18
2023-05-11T16:00:11.559Z,100208.87
2023-05-11T16:02:38.795Z,100210.64
2023-05-11T16:05:06.972Z,100210.99
2023-05-11T16:07:34.313Z,100209.23
2023-05-11T16:10:01.568Z,100207.40
2023-05-11T16:12:28.438Z,100205.88
2023-05-11T16:14:55.287Z,100208.23
2023-05-11T16:17:22.239Z,100200.62
2023-05-11T16:19:49.258Z,100204.07
2023-05-11T16:22:16.227Z,100201.38
2023-05-11T16:24:43.171Z,100203.39
2023-05-11T16:27:10.123Z,100204.89
2023-05-11T16:29:36.956Z,100203.89
2023-05-11T16:32:04.019Z,100208.20
2023-05-11T16:34:30.909Z,100210.10
2023-05-11T16:36:59.183Z,100210.05
2023-05-11T16:39:27.223Z,100208.66
2023-05-11T16:41:54.083Z,100212.03
2023-05-11T16:44:21.354Z,100213.95
2023-05-11T16:46:49.144Z,100213.57
2023-05-11T16:49:16.693Z,100215.23
2023-05-11T16:51:43.641Z,100214.59
2023-05-11T16:54:10.684Z,100217.79
2023-05-11T16:56:37.761Z,100213.61
2023-05-11T16:59:04.674Z,100216.63
2023-05-11T17:01:32.529Z,100219.13
2023-05-11T17:03:59.468Z,100217.59
2023-05-11T17:06:27.659Z,100217.33
2023-05-11T17:08:54.768Z,100217.91
2023-05-11T17:11:21.909Z,100220.08
2023-05-11T17:13:48.723Z,100212.23
2023-05-11T17:16:15.820Z,100212.88
2023-05-11T17:18:42.941Z,100212.10
2023-05-11T17:21:11.233Z,100212.04
2023-05-11T17:23:39.625Z,100213.27
2023-05-11T17:26:10.321Z,100215.37
2023-05-11T17:28:37.776Z,100217.68
2023-05-11T17:31:12.212Z,100219.58
2023-05-11T17:33:39.621Z,100217.83
2023-05-11T17:36:07.479Z,100220.84
2023-05-11T17:38:34.419Z,100221.56
2023-05-11T17:41:04.914Z,100224.23
2023-05-11T17:43:32.829Z,100232.05
2023-05-11T17:46:00.312Z,100232.98
2023-05-11T17:48:27.469Z,100234.79
2023-05-11T17:50:54.411Z,100238.55
2023-05-11T17:53:21.350Z,100242.44
2023-05-11T17:55:48.302Z,100244.78
2023-05-11T17:58:15.253Z,100248.52
2023-05-11T18:00:42.202Z,100252.35
2023-05-11T18:03:09.198Z,100250.73
2023-05-11T18:05:47.491Z,100253.92
2023-05-11T18:08:15.846Z,100253.05
2023-05-11T18:10:42.690Z,100255.48
2023-05-11T18:13:09.645Z,100256.34
2023-05-11T18:15:36.517Z,100258.73
2023-05-11T18:18:03.653Z,100260.60
2023-05-11T18:20:30.975Z,100264.56
2023-05-11T18:22:58.392Z,100265.39
2023-05-11T18:25:28.038Z,100266.89
2023-05-11T18:27:55.353Z,100270.11
2023-05-11T18:30:22.421Z,100269.98
2023-05-11T18:32:49.385Z,100269.27
2023-05-11T18:35:17.215Z,100270.52
2023-05-11T18:37:44.390Z,100270.56
2023-05-11T18:40:11.756Z,100273.56
2023-05-11T18:42:38.710Z,100273.05
2023-05-11T18:45:07.509Z,100277.81
2023-05-11T18:47:37.479Z,100277.08
2023-05-11T18:50:04.797Z,100275.64
2023-05-11T18:52:31.718Z,100277.86
2023-05-11T18:54:58.581Z,100275.42
2023-05-11T18:57:25.523Z,100276.29
2023-05-11T18:59:52.825Z,100275.77
2023-05-11T19:02:19.705Z,100277.92
2023-05-11T19:04:46.676Z,100279.55
2023-05-11T19:07:13.567Z,100278.74
2023-05-11T19:09:40.440Z,100278.27
2023-05-11T19:12:07.862Z,100274.44
2023-05-11T19:14:34.954Z,100277.05
2023-05-11T19:17:02.523Z,100275.28
2023-05-11T19:19:29.458Z,100276.20
2023-05-11T19:24:38.151Z,100278.67
2023-05-11T19:27:07.902Z,100276.10
2023-05-11T19:45:59.278Z,100277.49
2023-05-11T19:53:48.096Z,100277.84
2023-05-11T19:56:15.114Z,100275.45
2023-05-11T19:58:52.605Z,100276.06
2023-05-11T20:01:20.373Z,100271.52
2023-05-11T20:06:28.275Z,100269.73
2023-05-11T20:08:57.024Z,100270.63
2023-05-11T20:11:26.800Z,100272.37
2023-05-11T20:13:53.965Z,100273.17
2023-05-11T20:16:21.058Z,100272.61
2023-05-11T20:18:48.382Z,100270.83
2023-05-11T20:21:15.927Z,100270.09
2023-05-11T20:23:45.282Z,100269.11
2023-05-11T20:26:17.512Z,100268.75
2023-05-11T20:28:44.734Z,100269.90
2023-05-11T20:31:11.876Z,100269.61
2023-05-11T20:36:09.711Z,100267.80
2023-05-11T20:38:36.668Z,100267.89
2023-05-11T20:41:03.731Z,100264.33
2023-05-11T20:43:30.779Z,100268.00
2023-05-11T20:46:04.749Z,100269.29
2023-05-11T20:48:40.046Z,100269.12
2023-05-11T20:51:08.646Z,100270.73
2023-05-11T20:53:35.989Z,100273.25
2023-05-11T20:56:03.339Z,100272.42
2023-05-11T20:58:31.698Z,100273.85
2023-05-11T21:00:58.797Z,100272.00
2023-05-11T21:03:26.302Z,100277.14
2023-05-11T21:05:53.634Z,100279.64
2023-05-11T21:08:20.505Z,100280.91
2023-05-11T21:10:47.731Z,100280.10
2023-05-11T21:13:14.580Z,100282.29
2023-05-11T21:15:41.442Z,100280.61
2023-05-11T21:18:08.764Z,100280.48
2023-05-11T21:20:36.323Z,100281.43
2023-05-11T21:23:03.752Z,100282.88
2023-05-11T21:25:31.167Z,100279.00
2023-05-11T21:27:58.047Z,100281.39
2023-05-11T21:30:25.218Z,100281.66
2023-05-11T21:32:52.256Z,100287.56
2023-05-11T21:35:19.361Z,100286.09
2023-05-11T21:37:49.825Z,100288.98
2023-05-11T21:40:18.179Z,100288.20
2023-05-11T21:42:45.544Z,100289.55
2023-05-11T21:45:12.639Z,100290.22
2023-05-11T21:47:39.831Z,100290.71
2023-05-11T21:50:08.831Z,100291.23
2023-05-11T21:52:37.038Z,100292.79
2023-05-11T21:55:05.011Z,100297.35
2023-05-11T21:57:31.955Z,100297.52
2023-05-11T21:59:59.352Z,100300.33
2023-05-11T22:02:27.194Z,100300.88
2023-05-11T22:04:54.164Z,100301.09
2023-05-11T22:07:21.047Z,100302.90
2023-05-11T22:09:48.157Z,100301.21
2023-05-11T22:12:15.204Z,100298.77
2023-05-11T22:14:42.159Z,100298.84
2023-05-11T22:17:09.073Z,100300.66
2023-05-11T22:19:36.259Z,100304.41
2023-05-11T22:22:03.109Z,100299.36
2023-05-11T22:24:29.977Z,100303.84
2023-05-11T22:26:57.328Z,100300.44
2023-05-11T22:29:24.274Z,100301.23
2023-05-11T22:31:51.115Z,100302.22
2023-05-11T22:34:19.840Z,100302.30
2023-05-11T22:36:46.789Z,100300.76
2023-05-11T22:39:14.090Z,100298.52
2023-05-11T22:41:41.074Z,100298.73
2023-05-11T22:44:08.640Z,100296.30
2023-05-11T22:46:35.575Z,100294.91
2023-05-11T22:49:02.675Z,100295.98
2023-05-11T22:51:29.586Z,100293.94
2023-05-11T22:53:56.426Z,100295.77
2023-05-11T22:56:23.288Z,100290.64
2023-05-11T22:58:50.217Z,100293.58
2023-05-11T23:01:17.166Z,100297.05
2023-05-11T23:03:44.242Z,100300.89
2023-05-11T23:06:11.723Z,100303.13
2023-05-11T23:08:39.481Z,100303.98
2023-05-11T23:11:07.631Z,100302.20
2023-05-11T23:13:35.057Z,100302.13
2023-05-11T23:16:04.034Z,100299.79
2023-05-11T23:18:31.614Z,100295.52
2023-05-11T23:20:59.072Z,100292.27
2023-05-11T23:23:26.400Z,100291.30
2023-05-11T23:25:53.458Z,100287.15
2023-05-11T23:28:20.627Z,100287.05
2023-05-11T23:30:47.738Z,100290.64
2023-05-11T23:33:15.275Z,100291.40
2023-05-11T23:35:42.187Z,100288.48
2023-05-11T23:38:09.130Z,100289.40
2023-05-11T23:40:36.336Z,100285.03
2023-05-11T23:43:03.559Z,100284.17
2023-05-11T23:45:30.913Z,100285.57
2023-05-11T23:47:57.852Z,100286.11
2023-05-11T23:50:25.017Z,100287.73
2023-05-11T23:52:51.968Z,100287.96
2023-05-11T23:55:19.023Z,100289.27
2023-05-11T23:57:46.280Z,100292.66
